sensor_id;sensor_type;location;lat;lon;timestamp;P1;durP1;ratioP1;P2;durP2;ratioP2
50695;SDS011;36665;51.786;21.594;2023-12-29T00:08:16;27.40;;;12.10;;
50695;SDS011;36665;51.786;21.594;2023-12-29T00:16:40;24.50;;;11.50;;
50695;SDS011;36665;51.786;21.594;2023-12-29T00:25:04;21.10;;;11.10;;
50695;SDS011;36665;51.786;21.594;2023-12-29T00:33:32;25.20;;;12.10;;
50695;SDS011;36665;51.786;21.594;2023-12-29T00:41:56;23.90;;;12.60;;
50695;SDS011;36665;51.786;21.594;2023-12-29T00:50:21;22.10;;;11.00;;
50695;SDS011;36665;51.786;21.594;2023-12-29T00:58:47;21.70;;;11.90;;
50695;SDS011;36665;51.786;21.594;2023-12-29T01:07:10;25.00;;;11.90;;
50695;SDS011;36665;51.786;21.594;2023-12-29T01:15:35;19.00;;;10.00;;
50695;SDS011;36665;51.786;21.594;2023-12-29T01:24:00;18.30;;;10.50;;
50695;SDS011;36665;51.786;21.594;2023-12-29T01:32:27;22.20;;;11.80;;
50695;SDS011;36665;51.786;21.594;2023-12-29T01:40:51;21.40;;;10.30;;
50695;SDS011;36665;51.786;21.594;2023-12-29T01:49:16;24.70;;;12.00;;
50695;SDS011;36665;51.786;21.594;2023-12-29T01:57:43;24.00;;;11.60;;
50695;SDS011;36665;51.786;21.594;2023-12-29T02:06:08;21.60;;;10.00;;
50695;SDS011;36665;51.786;21.594;2023-12-29T02:14:36;24.70;;;11.30;;
50695;SDS011;36665;51.786;21.594;2023-12-29T02:23:01;22.10;;;11.30;;
50695;SDS011;36665;51.786;21.594;2023-12-29T02:31:26;18.70;;;9.50;;
50695;SDS011;36665;51.786;21.594;2023-12-29T02:39:55;21.90;;;11.90;;
50695;SDS011;36665;51.786;21.594;2023-12-29T02:48:24;22.10;;;11.00;;
50695;SDS011;36665;51.786;21.594;2023-12-29T02:56:48;17.30;;;8.30;;
50695;SDS011;36665;51.786;21.594;2023-12-29T03:05:12;23.10;;;11.10;;
50695;SDS011;36665;51.786;21.594;2023-12-29T03:13:38;23.20;;;10.20;;
50695;SDS011;36665;51.786;21.594;2023-12-29T03:22:01;22.60;;;12.00;;
50695;SDS011;36665;51.786;21.594;2023-12-29T03:30:28;19.30;;;11.20;;
50695;SDS011;36665;51.786;21.594;2023-12-29T03:38:53;21.20;;;10.60;;
50695;SDS011;36665;51.786;21.594;2023-12-29T03:47:20;25.30;;;12.30;;
50695;SDS011;36665;51.786;21.594;2023-12-29T03:55:44;21.90;;;11.80;;
50695;SDS011;36665;51.786;21.594;2023-12-29T04:04:09;21.60;;;10.10;;
50695;SDS011;36665;51.786;21.594;2023-12-29T04:12:34;24.80;;;11.80;;
50695;SDS011;36665;51.786;21.594;2023-12-29T04:21:00;23.10;;;11.90;;
50695;SDS011;36665;51.786;21.594;2023-12-29T04:29:25;23.70;;;10.90;;
50695;SDS011;36665;51.786;21.594;2023-12-29T04:37:51;23.30;;;12.00;;
50695;SDS011;36665;51.786;21.594;2023-12-29T04:46:17;27.90;;;12.30;;
50695;SDS011;36665;51.786;21.594;2023-12-29T04:54:44;21.30;;;10.80;;
50695;SDS011;36665;51.786;21.594;2023-12-29T05:03:12;23.60;;;11.70;;
50695;SDS011;36665;51.786;21.594;2023-12-29T05:11:36;25.30;;;11.90;;
50695;SDS011;36665;51.786;21.594;2023-12-29T05:20:00;26.90;;;12.00;;
50695;SDS011;36665;51.786;21.594;2023-12-29T05:28:24;29.40;;;15.10;;
50695;SDS011;36665;51.786;21.594;2023-12-29T05:36:50;21.80;;;12.00;;
50695;SDS011;36665;51.786;21.594;2023-12-29T05:45:16;24.90;;;13.00;;
50695;SDS011;36665;51.786;21.594;2023-12-29T05:53:41;29.10;;;13.80;;
50695;SDS011;36665;51.786;21.594;2023-12-29T06:02:05;23.10;;;11.90;;
50695;SDS011;36665;51.786;21.594;2023-12-29T06:10:33;27.90;;;14.10;;
50695;SDS011;36665;51.786;21.594;2023-12-29T06:18:59;23.20;;;11.90;;
50695;SDS011;36665;51.786;21.594;2023-12-29T06:27:23;28.10;;;13.40;;
50695;SDS011;36665;51.786;21.594;2023-12-29T06:35:48;26.20;;;13.00;;
50695;SDS011;36665;51.786;21.594;2023-12-29T06:44:11;28.20;;;12.90;;
50695;SDS011;36665;51.786;21.594;2023-12-29T06:52:37;26.00;;;12.60;;
50695;SDS011;36665;51.786;21.594;2023-12-29T07:01:02;28.30;;;14.20;;
50695;SDS011;36665;51.786;21.594;2023-12-29T07:09:28;27.90;;;12.60;;
50695;SDS011;36665;51.786;21.594;2023-12-29T07:17:54;24.20;;;12.40;;
50695;SDS011;36665;51.786;21.594;2023-12-29T07:26:18;26.50;;;12.00;;
50695;SDS011;36665;51.786;21.594;2023-12-29T07:34:42;24.90;;;12.10;;
50695;SDS011;36665;51.786;21.594;2023-12-29T07:43:08;43.60;;;20.10;;
50695;SDS011;36665;51.786;21.594;2023-12-29T07:51:32;21.70;;;11.70;;
50695;SDS011;36665;51.786;21.594;2023-12-29T08:00:01;25.80;;;11.80;;
50695;SDS011;36665;51.786;21.594;2023-12-29T08:08:34;22.30;;;12.50;;
50695;SDS011;36665;51.786;21.594;2023-12-29T08:16:59;23.10;;;11.40;;
50695;SDS011;36665;51.786;21.594;2023-12-29T08:25:23;20.60;;;10.80;;
50695;SDS011;36665;51.786;21.594;2023-12-29T08:33:47;16.60;;;8.70;;
50695;SDS011;36665;51.786;21.594;2023-12-29T08:42:11;21.40;;;11.00;;
50695;SDS011;36665;51.786;21.594;2023-12-29T08:50:40;19.60;;;10.80;;
50695;SDS011;36665;51.786;21.594;2023-12-29T08:59:05;38.40;;;18.50;;
50695;SDS011;36665;51.786;21.594;2023-12-29T09:07:31;773.20;;;348.40;;
50695;SDS011;36665;51.786;21.594;2023-12-29T09:15:56;1283.90;;;462.30;;
50695;SDS011;36665;51.786;21.594;2023-12-29T09:24:22;970.10;;;331.60;;
50695;SDS011;36665;51.786;21.594;2023-12-29T09:32:46;209.40;;;62.70;;
50695;SDS011;36665;51.786;21.594;2023-12-29T09:41:11;225.50;;;80.20;;
50695;SDS011;36665;51.786;21.594;2023-12-29T09:49:38;98.70;;;41.80;;
50695;SDS011;36665;51.786;21.594;2023-12-29T09:58:06;66.00;;;33.30;;
50695;SDS011;36665;51.786;21.594;2023-12-29T10:06:34;60.60;;;30.30;;
50695;SDS011;36665;51.786;21.594;2023-12-29T10:15:05;43.90;;;21.70;;
50695;SDS011;36665;51.786;21.594;2023-12-29T10:23:43;65.90;;;34.60;;
50695;SDS011;36665;51.786;21.594;2023-12-29T10:32:17;50.80;;;27.30;;
50695;SDS011;36665;51.786;21.594;2023-12-29T10:40:41;19.50;;;11.90;;
50695;SDS011;36665;51.786;21.594;2023-12-29T10:49:07;21.80;;;11.90;;
50695;SDS011;36665;51.786;21.594;2023-12-29T10:57:34;39.50;;;21.10;;
50695;SDS011;36665;51.786;21.594;2023-12-29T11:05:58;23.10;;;12.00;;
50695;SDS011;36665;51.786;21.594;2023-12-29T11:14:25;25.10;;;14.50;;
50695;SDS011;36665;51.786;21.594;2023-12-29T11:22:50;14.80;;;9.00;;
50695;SDS011;36665;51.786;21.594;2023-12-29T11:31:15;21.40;;;10.60;;
50695;SDS011;36665;51.786;21.594;2023-12-29T11:49:09;15.70;;;6.60;;
50695;SDS011;36665;51.786;21.594;2023-12-29T11:57:33;20.20;;;7.80;;
50695;SDS011;36665;51.786;21.594;2023-12-29T12:05:59;13.90;;;5.80;;
50695;SDS011;36665;51.786;21.594;2023-12-29T12:23:27;6.70;;;4.40;;
50695;SDS011;36665;51.786;21.594;2023-12-29T12:31:57;14.00;;;4.80;;
50695;SDS011;36665;51.786;21.594;2023-12-29T12:40:25;8.90;;;3.50;;
50695;SDS011;36665;51.786;21.594;2023-12-29T12:48:50;12.60;;;3.40;;
50695;SDS011;36665;51.786;21.594;2023-12-29T12:57:19;7.40;;;2.90;;
50695;SDS011;36665;51.786;21.594;2023-12-29T13:05:44;9.10;;;4.30;;
50695;SDS011;36665;51.786;21.594;2023-12-29T13:14:07;6.70;;;3.60;;
50695;SDS011;36665;51.786;21.594;2023-12-29T13:22:31;7.90;;;3.70;;
50695;SDS011;36665;51.786;21.594;2023-12-29T13:30:55;12.80;;;3.90;;
50695;SDS011;36665;51.786;21.594;2023-12-29T13:39:26;64.00;;;32.70;;
50695;SDS011;36665;51.786;21.594;2023-12-29T13:48:00;14.10;;;5.50;;
50695;SDS011;36665;51.786;21.594;2023-12-29T13:56:26;8.10;;;3.60;;
50695;SDS011;36665;51.786;21.594;2023-12-29T14:04:50;6.70;;;3.20;;
50695;SDS011;36665;51.786;21.594;2023-12-29T14:13:28;8.00;;;4.70;;
50695;SDS011;36665;51.786;21.594;2023-12-29T14:21:53;12.20;;;4.40;;
50695;SDS011;36665;51.786;21.594;2023-12-29T14:30:18;10.40;;;4.20;;
50695;SDS011;36665;51.786;21.594;2023-12-29T14:38:43;9.00;;;3.50;;
50695;SDS011;36665;51.786;21.594;2023-12-29T14:47:08;8.30;;;3.30;;
50695;SDS011;36665;51.786;21.594;2023-12-29T14:55:34;8.60;;;4.80;;
50695;SDS011;36665;51.786;21.594;2023-12-29T15:04:00;6.80;;;3.90;;
50695;SDS011;36665;51.786;21.594;2023-12-29T15:12:24;14.20;;;3.90;;
50695;SDS011;36665;51.786;21.594;2023-12-29T15:20:50;9.50;;;4.20;;
50695;SDS011;36665;51.786;21.594;2023-12-29T15:29:14;6.50;;;3.70;;
50695;SDS011;36665;51.786;21.594;2023-12-29T15:37:38;9.30;;;3.90;;
50695;SDS011;36665;51.786;21.594;2023-12-29T15:46:11;10.30;;;4.40;;
50695;SDS011;36665;51.786;21.594;2023-12-29T15:54:45;14.10;;;4.10;;
50695;SDS011;36665;51.786;21.594;2023-12-29T16:03:09;188.30;;;106.00;;
50695;SDS011;36665;51.786;21.594;2023-12-29T16:11:55;10.00;;;5.00;;
50695;SDS011;36665;51.786;21.594;2023-12-29T16:20:19;8.70;;;4.30;;
50695;SDS011;36665;51.786;21.594;2023-12-29T16:28:52;11.70;;;4.20;;
50695;SDS011;36665;51.786;21.594;2023-12-29T16:37:16;8.40;;;5.00;;
50695;SDS011;36665;51.786;21.594;2023-12-29T16:45:43;14.20;;;4.60;;
50695;SDS011;36665;51.786;21.594;2023-12-29T16:54:08;6.70;;;3.90;;
50695;SDS011;36665;51.786;21.594;2023-12-29T17:02:33;9.30;;;4.30;;
50695;SDS011;36665;51.786;21.594;2023-12-29T17:10:57;8.30;;;3.80;;
50695;SDS011;36665;51.786;21.594;2023-12-29T17:19:21;339.40;;;110.20;;
50695;SDS011;36665;51.786;21.594;2023-12-29T17:27:49;544.70;;;175.20;;
50695;SDS011;36665;51.786;21.594;2023-12-29T17:36:14;228.10;;;54.70;;
50695;SDS011;36665;51.786;21.594;2023-12-29T17:44:41;479.90;;;135.00;;
50695;SDS011;36665;51.786;21.594;2023-12-29T17:53:05;259.50;;;70.90;;
50695;SDS011;36665;51.786;21.594;2023-12-29T18:01:29;264.20;;;94.00;;
50695;SDS011;36665;51.786;21.594;2023-12-29T18:09:55;183.00;;;62.30;;
50695;SDS011;36665;51.786;21.594;2023-12-29T18:18:20;52.60;;;24.70;;
50695;SDS011;36665;51.786;21.594;2023-12-29T18:26:45;69.70;;;32.20;;
50695;SDS011;36665;51.786;21.594;2023-12-29T18:35:09;31.90;;;15.40;;
50695;SDS011;36665;51.786;21.594;2023-12-29T18:43:35;48.80;;;25.80;;
50695;SDS011;36665;51.786;21.594;2023-12-29T18:52:00;10.30;;;6.30;;
50695;SDS011;36665;51.786;21.594;2023-12-29T19:00:25;20.10;;;11.60;;
50695;SDS011;36665;51.786;21.594;2023-12-29T19:08:48;17.40;;;8.40;;
50695;SDS011;36665;51.786;21.594;2023-12-29T19:17:13;12.40;;;5.60;;
50695;SDS011;36665;51.786;21.594;2023-12-29T19:25:37;14.60;;;7.70;;
50695;SDS011;36665;51.786;21.594;2023-12-29T19:34:03;14.20;;;8.10;;
50695;SDS011;36665;51.786;21.594;2023-12-29T19:42:29;13.90;;;7.60;;
50695;SDS011;36665;51.786;21.594;2023-12-29T19:50:55;17.20;;;8.30;;
50695;SDS011;36665;51.786;21.594;2023-12-29T19:59:20;18.80;;;10.90;;
50695;SDS011;36665;51.786;21.594;2023-12-29T20:07:46;16.20;;;8.70;;
50695;SDS011;36665;51.786;21.594;2023-12-29T20:16:23;36.80;;;20.50;;
50695;SDS011;36665;51.786;21.594;2023-12-29T20:25:04;29.00;;;13.40;;
50695;SDS011;36665;51.786;21.594;2023-12-29T20:33:30;23.30;;;10.00;;
50695;SDS011;36665;51.786;21.594;2023-12-29T20:41:54;27.00;;;12.00;;
50695;SDS011;36665;51.786;21.594;2023-12-29T20:50:18;21.60;;;10.60;;
50695;SDS011;36665;51.786;21.594;2023-12-29T20:59:36;14.80;;;6.10;;
50695;SDS011;36665;51.786;21.594;2023-12-29T21:08:05;14.40;;;7.90;;
50695;SDS011;36665;51.786;21.594;2023-12-29T21:16:51;13.30;;;7.00;;
50695;SDS011;36665;51.786;21.594;2023-12-29T21:25:15;17.00;;;8.60;;
50695;SDS011;36665;51.786;21.594;2023-12-29T21:33:39;17.50;;;7.40;;
50695;SDS011;36665;51.786;21.594;2023-12-29T21:42:03;14.10;;;7.00;;
50695;SDS011;36665;51.786;21.594;2023-12-29T21:59:31;10.60;;;5.60;;
50695;SDS011;36665;51.786;21.594;2023-12-29T22:07:55;16.70;;;7.80;;
50695;SDS011;36665;51.786;21.594;2023-12-29T22:16:19;12.70;;;6.50;;
50695;SDS011;36665;51.786;21.594;2023-12-29T22:24:46;13.70;;;6.90;;
50695;SDS011;36665;51.786;21.594;2023-12-29T22:33:12;11.60;;;5.60;;
50695;SDS011;36665;51.786;21.594;2023-12-29T22:41:37;14.30;;;6.50;;
50695;SDS011;36665;51.786;21.594;2023-12-29T22:50:01;10.00;;;6.10;;
50695;SDS011;36665;51.786;21.594;2023-12-29T22:58:27;13.00;;;6.30;;
50695;SDS011;36665;51.786;21.594;2023-12-29T23:06:52;10.50;;;5.10;;
50695;SDS011;36665;51.786;21.594;2023-12-29T23:15:16;11.90;;;6.70;;
50695;SDS011;36665;51.786;21.594;2023-12-29T23:23:41;10.10;;;5.10;;
50695;SDS011;36665;51.786;21.594;2023-12-29T23:32:07;12.20;;;5.30;;
50695;SDS011;36665;51.786;21.594;2023-12-29T23:40:32;12.50;;;6.40;;
50695;SDS011;36665;51.786;21.594;2023-12-29T23:48:58;13.70;;;5.10;;
50695;SDS011;36665;51.786;21.594;2023-12-29T23:57:22;9.60;;;4.80;;
